createdAt,value
2023-04-30T00:00:11.022Z,16.7
2023-04-30T00:06:33.947Z,24.2
2023-04-30T00:12:54.004Z,24.2
2023-04-30T00:19:17.060Z,22.3
2023-04-30T00:25:37.140Z,22.3
2023-04-30T00:32:00.026Z,16.9
2023-04-30T00:38:19.979Z,16.9
2023-04-30T00:44:42.909Z,12.6
2023-04-30T00:51:02.987Z,12.6
2023-04-30T00:57:25.946Z,14.5
2023-04-30T01:03:46.015Z,14.5
2023-04-30T01:10:09.051Z,11.8
2023-04-30T01:16:29.143Z,11.8
2023-04-30T01:22:51.952Z,23
2023-04-30T01:29:11.922Z,23
2023-04-30T01:35:35.001Z,16.4
2023-04-30T01:41:55.014Z,16.4
2023-04-30T01:48:17.975Z,18.8
2023-04-30T01:54:38.064Z,18.8
2023-04-30T02:01:00.975Z,15.2
2023-04-30T02:07:20.971Z,15.2
2023-04-30T02:13:44.003Z,22.7
2023-04-30T02:20:03.929Z,22.7
2023-04-30T02:26:27.003Z,19.3
2023-04-30T02:32:47.012Z,19.3
2023-04-30T02:39:10.030Z,17.5
2023-04-30T02:45:29.936Z,17.5
2023-04-30T02:51:53.076Z,13.7
2023-04-30T02:58:12.978Z,13.7
2023-04-30T03:04:35.990Z,27.5
2023-04-30T03:10:55.984Z,27.5
2023-04-30T03:17:18.966Z,16.4
2023-04-30T03:33:08.934Z,35.8
2023-04-30T03:39:28.875Z,35.8
2023-04-30T03:45:52.039Z,35.6
2023-04-30T03:52:12.028Z,35.6
2023-04-30T03:58:35.037Z,24.5
2023-04-30T04:04:54.934Z,24.5
2023-04-30T04:11:18.130Z,20.1
2023-04-30T04:17:38.239Z,20.1
2023-04-30T04:24:00.948Z,12.6
2023-04-30T04:30:20.970Z,12.6
2023-04-30T04:36:43.998Z,29.1
2023-04-30T04:43:03.963Z,29.1
2023-04-30T04:49:27.029Z,14.2
2023-04-30T04:55:46.897Z,14.2
2023-04-30T05:02:10.246Z,22.6
2023-04-30T05:08:30.010Z,22.6
2023-04-30T05:14:52.983Z,17.4
2023-04-30T05:21:13.002Z,17.4
2023-04-30T05:27:36.045Z,18.8
2023-04-30T05:33:56.147Z,18.8
2023-04-30T05:40:18.970Z,13
2023-04-30T05:46:39.034Z,13
2023-04-30T05:53:02.087Z,11.2
2023-04-30T05:59:21.964Z,11.2
2023-04-30T06:05:45.037Z,15.9
2023-04-30T06:12:05.007Z,15.9
2023-04-30T06:18:28.004Z,17.8
2023-04-30T06:24:48.055Z,17.8
2023-04-30T06:31:11.012Z,14.1
2023-04-30T06:37:32.433Z,14.1
2023-04-30T06:43:54.044Z,17.5
2023-04-30T06:50:13.989Z,17.5
2023-04-30T06:56:37.016Z,11.9
2023-04-30T07:02:56.956Z,11.9
2023-04-30T07:09:19.986Z,18.3
2023-04-30T07:15:40.435Z,18.3
2023-04-30T07:22:03.045Z,17.3
2023-04-30T07:28:23.024Z,17.3
2023-04-30T07:34:47.484Z,15.7
2023-04-30T07:41:07.251Z,15.7
2023-04-30T07:47:29.981Z,9.1
2023-04-30T07:53:49.976Z,9.1
2023-04-30T08:00:13.044Z,13.1
2023-04-30T08:06:32.962Z,13.1
2023-04-30T08:12:55.972Z,6.7
2023-04-30T08:19:15.958Z,6.7
2023-04-30T08:25:38.932Z,11.3
2023-04-30T08:48:26.869Z,7.4
2023-04-30T08:54:46.904Z,7.4
2023-04-30T09:01:10.009Z,6
2023-04-30T09:07:29.952Z,6
2023-04-30T09:13:53.223Z,3.9
2023-04-30T09:20:12.949Z,3.9
2023-04-30T09:26:35.915Z,2.6
2023-04-30T09:32:55.986Z,2.6
2023-04-30T09:39:19.012Z,4.1
2023-04-30T09:45:39.030Z,4.1
2023-04-30T09:52:01.929Z,2.2
2023-04-30T09:58:21.887Z,2.2
2023-04-30T10:04:45.019Z,0.9
2023-04-30T10:11:04.909Z,0.9
2023-04-30T10:17:27.930Z,0.1
2023-04-30T10:23:47.966Z,0.1
2023-04-30T10:30:10.895Z,0.3
2023-04-30T10:36:30.964Z,0.3
2023-04-30T10:42:53.967Z,0.1
2023-04-30T10:49:13.898Z,0.1
2023-04-30T10:55:36.963Z,0.2
2023-04-30T11:01:56.968Z,0.2
2023-04-30T11:08:19.942Z,0.2
2023-04-30T11:14:39.973Z,0.2
2023-04-30T11:21:02.929Z,0.3
2023-04-30T11:27:22.950Z,0.3
2023-04-30T11:33:45.905Z,2.9
2023-04-30T11:40:05.946Z,2.9
2023-04-30T11:46:28.941Z,0.3
2023-04-30T11:52:48.916Z,0.3
2023-04-30T11:59:11.930Z,0.5
2023-04-30T12:05:31.898Z,0.5
2023-04-30T12:11:54.937Z,0.2
2023-04-30T12:18:14.913Z,0.2
2023-04-30T12:24:37.910Z,0.5
2023-04-30T12:30:57.922Z,0.5
2023-04-30T12:37:20.925Z,1.2
2023-04-30T12:43:40.948Z,1.2
2023-04-30T12:50:03.911Z,0.6
2023-04-30T12:56:23.938Z,0.6
2023-04-30T13:02:46.940Z,1.5
2023-04-30T13:09:06.895Z,1.5
2023-04-30T13:15:30.052Z,0.7
2023-04-30T13:21:49.914Z,0.7
2023-04-30T13:28:12.898Z,0.2
2023-04-30T13:34:32.973Z,0.2
2023-04-30T13:40:55.903Z,0.1
2023-04-30T13:47:15.929Z,0.1
2023-04-30T13:53:38.928Z,0.1
2023-04-30T13:59:59.081Z,0.1
2023-04-30T14:06:21.941Z,0.7
2023-04-30T14:12:42.043Z,0.7
2023-04-30T14:35:48.912Z,0.5
2023-04-30T14:42:11.911Z,0.5
2023-04-30T14:48:31.944Z,0.5
2023-04-30T14:54:54.920Z,0.1
2023-04-30T15:01:14.938Z,0.1
2023-04-30T15:07:37.899Z,0.3
2023-04-30T15:13:57.925Z,0.3
2023-04-30T15:20:20.979Z,0.7
2023-04-30T15:26:40.887Z,0.7
2023-04-30T15:33:04.022Z,0.4
2023-04-30T15:39:23.894Z,0.4
2023-04-30T15:45:46.939Z,0.1
2023-04-30T15:52:07.174Z,0.1
2023-04-30T15:58:29.939Z,0.8
2023-04-30T16:04:49.972Z,0.8
2023-04-30T16:11:12.931Z,0.3
2023-04-30T16:17:33.061Z,0.3
2023-04-30T16:23:56.045Z,0.7
2023-04-30T16:30:15.936Z,0.7
2023-04-30T16:36:38.938Z,0.3
2023-04-30T16:42:58.909Z,0.3
2023-04-30T16:49:22.191Z,0.1
2023-04-30T16:55:42.217Z,0.1
2023-04-30T17:02:04.921Z,0.4
2023-04-30T17:08:24.964Z,0.4
2023-04-30T17:14:47.913Z,0.2
2023-04-30T17:21:08.035Z,0.2
2023-04-30T17:27:31.030Z,0.4
2023-04-30T17:33:50.893Z,0.4
2023-04-30T17:40:13.943Z,0.7
2023-04-30T17:46:33.927Z,0.7
2023-04-30T17:52:56.930Z,0.3
2023-04-30T17:59:16.911Z,0.3
2023-04-30T18:05:39.942Z,0.7
2023-04-30T18:12:00.303Z,0.7
2023-04-30T18:18:23.049Z,0.4
2023-04-30T18:24:42.944Z,0.4
2023-04-30T18:31:05.917Z,0.7
2023-04-30T18:37:25.899Z,0.7
2023-04-30T18:43:49.054Z,1.4
2023-04-30T18:50:08.910Z,1.4
2023-04-30T18:56:31.901Z,1.7
2023-04-30T19:02:52.323Z,1.7
2023-04-30T19:09:14.923Z,1.7
2023-04-30T19:15:34.940Z,1.7
2023-04-30T19:21:57.937Z,0.6
2023-04-30T19:28:17.968Z,0.6
2023-04-30T19:34:40.914Z,0.1
2023-04-30T19:41:01.066Z,0.1
2023-04-30T19:47:23.903Z,1.7
2023-04-30T20:10:11.855Z,1.4
2023-04-30T20:16:31.933Z,1.4
2023-04-30T20:22:54.944Z,1.2
2023-04-30T20:29:14.921Z,1.2
2023-04-30T20:35:37.915Z,1.4
2023-04-30T20:41:57.955Z,1.4
2023-04-30T20:48:20.917Z,0.9
2023-04-30T20:54:40.950Z,0.9
2023-04-30T21:01:03.943Z,1
2023-04-30T21:07:24.244Z,1
2023-04-30T21:13:47.964Z,1
2023-04-30T21:20:06.892Z,1
2023-04-30T21:26:30.092Z,2.7
2023-04-30T21:32:49.980Z,2.7
2023-04-30T21:39:13.160Z,3
2023-04-30T21:45:32.991Z,3
2023-04-30T21:51:55.951Z,2.2
2023-04-30T21:58:15.950Z,2.2
2023-04-30T22:22:32.904Z,6
2023-04-30T22:28:52.947Z,6
2023-04-30T22:35:15.969Z,6
2023-04-30T22:41:35.990Z,6
2023-04-30T22:48:01.477Z,1.8
2023-04-30T22:54:18.929Z,1.8
2023-04-30T23:00:41.976Z,2.9
2023-04-30T23:07:01.933Z,2.9
2023-04-30T23:13:24.906Z,1.8
2023-04-30T23:19:44.945Z,1.8
2023-04-30T23:26:07.935Z,4.1
2023-04-30T23:32:28.075Z,4.1
2023-04-30T23:38:50.977Z,9.1
2023-04-30T23:45:10.941Z,9.1
2023-04-30T23:51:33.953Z,2.1
2023-04-30T23:57:53.972Z,2.1
